createdAt,value
2022-08-04T00:00:05.316Z,29.00
2022-08-04T00:02:39.351Z,27.90
2022-08-04T00:05:08.433Z,27.90
2022-08-04T00:07:44.401Z,27.97
2022-08-04T00:10:15.463Z,28.57
2022-08-04T00:12:46.082Z,29.57
2022-08-04T00:15:16.687Z,30.03
2022-08-04T00:17:47.070Z,30.47
2022-08-04T00:20:21.850Z,31.83
2022-08-04T00:22:50.615Z,28.67
2022-08-04T00:25:18.806Z,30.03
2022-08-04T00:27:49.007Z,33.83
2022-08-04T00:30:17.250Z,29.63
2022-08-04T00:32:45.471Z,32.10
2022-08-04T00:35:15.152Z,33.10
2022-08-04T00:37:45.647Z,29.60
2022-08-04T00:40:17.898Z,33.63
2022-08-04T00:42:59.098Z,31.90
2022-08-04T00:46:15.786Z,29.23
2022-08-04T00:48:49.256Z,27.43
2022-08-04T00:51:23.742Z,28.97
2022-08-04T00:53:57.002Z,31.97
2022-08-04T00:56:38.182Z,29.30
2022-08-04T00:59:13.476Z,31.80
2022-08-04T01:01:49.540Z,29.43
2022-08-04T01:04:22.242Z,30.07
2022-08-04T01:07:03.601Z,43.97
2022-08-04T01:09:42.173Z,33.37
2022-08-04T01:12:28.180Z,29.60
2022-08-04T01:15:06.044Z,29.20
2022-08-04T01:17:39.441Z,30.60
2022-08-04T01:20:08.614Z,29.53
2022-08-04T01:23:03.512Z,44.10
2022-08-04T01:25:39.710Z,29.07
2022-08-04T01:28:20.815Z,33.17
2022-08-04T01:30:51.191Z,34.37
2022-08-04T01:33:20.439Z,45.07
2022-08-04T01:35:49.822Z,33.53
2022-08-04T01:38:21.518Z,32.73
2022-08-04T01:40:53.801Z,44.37
2022-08-04T01:43:22.434Z,31.90
2022-08-04T01:45:53.182Z,33.40
2022-08-04T01:48:25.854Z,32.90
2022-08-04T01:50:54.561Z,43.80
2022-08-04T01:53:22.753Z,46.07
2022-08-04T01:55:54.116Z,45.27
2022-08-04T01:58:25.155Z,45.13
2022-08-04T02:00:59.759Z,44.33
2022-08-04T02:04:20.284Z,44.37
2022-08-04T02:06:20.822Z,44.83
2022-08-04T02:08:52.690Z,44.17
2022-08-04T02:11:22.557Z,45.10
2022-08-04T02:13:55.908Z,45.53
2022-08-04T02:16:31.302Z,44.50
2022-08-04T02:19:03.463Z,45.57
2022-08-04T02:21:42.253Z,44.83
2022-08-04T02:24:15.378Z,44.67
2022-08-04T02:26:44.518Z,45.77
2022-08-04T02:29:15.744Z,47.40
2022-08-04T02:31:49.974Z,46.17
2022-08-04T02:34:21.875Z,45.77
2022-08-04T02:36:50.109Z,46.20
2022-08-04T02:39:20.915Z,46.60
2022-08-04T02:41:49.814Z,47.47
2022-08-04T02:44:21.838Z,47.67
2022-08-04T02:46:53.166Z,45.27
2022-08-04T02:49:22.876Z,45.67
2022-08-04T02:51:52.284Z,45.63
2022-08-04T02:54:31.755Z,47.20
2022-08-04T02:57:02.130Z,47.13
2022-08-04T02:59:32.061Z,44.77
2022-08-04T03:02:01.623Z,46.20
2022-08-04T03:04:44.139Z,46.20
2022-08-04T03:07:45.466Z,45.83
2022-08-04T03:10:29.335Z,45.07
2022-08-04T03:13:18.923Z,44.40
2022-08-04T03:16:00.278Z,45.63
2022-08-04T03:18:47.017Z,46.43
2022-08-04T03:21:44.272Z,48.40
2022-08-04T03:24:33.335Z,45.83
2022-08-04T03:27:11.813Z,47.47
2022-08-04T03:29:59.067Z,46.53
2022-08-04T03:32:42.202Z,46.80
2022-08-04T03:35:25.651Z,47.03
2022-08-04T03:38:04.926Z,46.27
2022-08-04T03:40:58.278Z,48.87
2022-08-04T03:43:57.218Z,45.83
2022-08-04T03:46:54.882Z,46.17
2022-08-04T03:49:41.821Z,46.93
2022-08-04T03:52:32.426Z,46.97
2022-08-04T03:55:10.858Z,46.27
2022-08-04T03:57:49.406Z,46.87
2022-08-04T04:00:19.785Z,46.43
2022-08-04T04:03:12.150Z,46.93
2022-08-04T04:06:05.455Z,46.17
2022-08-04T04:08:52.229Z,47.20
2022-08-04T04:11:35.344Z,51.53
2022-08-04T04:14:39.251Z,49.70
2022-08-04T04:17:13.047Z,49.57
2022-08-04T04:19:50.239Z,47.97
2022-08-04T04:22:34.281Z,51.70
2022-08-04T04:25:13.981Z,49.23
2022-08-04T04:27:45.018Z,50.77
2022-08-04T04:30:18.210Z,48.70
2022-08-04T04:33:07.774Z,51.40
2022-08-04T04:35:39.925Z,51.30
2022-08-04T04:38:25.836Z,51.23
2022-08-04T04:40:58.017Z,49.57
2022-08-04T04:43:51.850Z,49.63
2022-08-04T04:46:31.844Z,51.53
2022-08-04T04:49:03.137Z,49.53
2022-08-04T04:51:35.341Z,51.77
2022-08-04T04:54:07.864Z,50.53
2022-08-04T04:56:40.494Z,52.50
2022-08-04T04:59:11.750Z,50.43
2022-08-04T05:01:54.962Z,51.90
2022-08-04T05:04:31.006Z,51.77
2022-08-04T05:07:09.918Z,51.13
2022-08-04T05:09:44.826Z,53.40
2022-08-04T05:14:32.475Z,54.03
2022-08-04T05:15:17.110Z,49.47
2022-08-04T05:17:48.067Z,55.07
2022-08-04T05:20:22.084Z,53.30
2022-08-04T05:22:54.560Z,52.07
2022-08-04T05:25:23.498Z,53.97
2022-08-04T05:27:53.230Z,53.13
2022-08-04T05:30:22.267Z,53.93
2022-08-04T05:32:59.078Z,57.10
2022-08-04T05:36:15.980Z,53.90
2022-08-04T05:38:22.221Z,50.60
2022-08-04T05:40:51.165Z,53.17
2022-08-04T05:43:19.929Z,55.30
2022-08-04T05:45:49.360Z,50.70
2022-08-04T05:48:17.961Z,55.23
2022-08-04T05:50:47.913Z,53.90
2022-08-04T05:53:17.867Z,55.50
2022-08-04T05:55:57.230Z,50.87
2022-08-04T05:58:28.687Z,56.20
2022-08-04T06:00:57.456Z,55.40
2022-08-04T06:03:25.731Z,57.47
2022-08-04T06:05:56.324Z,57.90
2022-08-04T06:08:24.572Z,53.57
2022-08-04T06:10:53.082Z,52.90
2022-08-04T06:13:45.419Z,52.47
2022-08-04T06:16:28.573Z,55.30
2022-08-04T06:19:58.891Z,52.47
2022-08-04T06:21:51.538Z,55.77
2022-08-04T06:24:21.259Z,54.10
2022-08-04T06:26:51.160Z,57.80
2022-08-04T06:29:24.880Z,54.30
2022-08-04T06:32:27.023Z,56.97
2022-08-04T06:34:50.419Z,54.23
2022-08-04T06:37:24.161Z,54.43
2022-08-04T06:40:29.538Z,57.30
2022-08-04T06:42:59.810Z,54.27
2022-08-04T06:45:28.719Z,57.60
2022-08-04T06:47:57.981Z,55.47
2022-08-04T06:51:28.657Z,55.10
2022-08-04T06:53:16.538Z,55.53
2022-08-04T06:55:45.671Z,55.77
2022-08-04T06:58:14.621Z,55.63
2022-08-04T07:00:43.704Z,58.47
2022-08-04T07:03:12.371Z,57.30
2022-08-04T07:05:41.700Z,58.27
2022-08-04T07:08:11.834Z,56.83
2022-08-04T07:10:42.421Z,57.47
2022-08-04T07:13:10.923Z,57.67
2022-08-04T07:15:40.631Z,57.07
2022-08-04T07:18:09.032Z,59.33
2022-08-04T07:20:37.629Z,59.30
2022-08-04T07:23:07.487Z,58.23
2022-08-04T07:26:00.191Z,55.33
2022-08-04T07:28:27.531Z,60.07
2022-08-04T07:30:56.641Z,54.77
2022-08-04T07:33:25.821Z,55.23
2022-08-04T07:36:10.729Z,57.57
2022-08-04T07:38:48.225Z,55.37
2022-08-04T07:41:37.562Z,59.13
2022-08-04T07:44:07.555Z,59.93
2022-08-04T07:46:35.948Z,54.73
2022-08-04T07:49:04.298Z,57.97
2022-08-04T07:51:33.219Z,60.67
2022-08-04T07:54:03.416Z,59.43
2022-08-04T07:56:32.356Z,60.10
2022-08-04T07:59:01.451Z,59.87
2022-08-04T08:01:31.510Z,59.70
2022-08-04T08:04:00.595Z,60.50
2022-08-04T08:06:32.295Z,54.80
2022-08-04T08:09:13.087Z,58.30
2022-08-04T08:12:35.967Z,58.50
2022-08-04T08:14:31.652Z,57.47
2022-08-04T08:17:02.863Z,53.47
2022-08-04T08:19:31.709Z,56.40
2022-08-04T08:22:01.255Z,54.87
2022-08-04T08:24:30.810Z,54.50
2022-08-04T08:27:00.090Z,58.90
2022-08-04T08:29:29.405Z,61.03
2022-08-04T08:32:02.632Z,59.87
2022-08-04T08:34:32.827Z,57.93
2022-08-04T08:37:03.841Z,58.23
2022-08-04T08:39:36.944Z,59.90
2022-08-04T08:42:20.209Z,60.90
2022-08-04T08:45:04.453Z,58.00
2022-08-04T08:48:05.145Z,54.13
2022-08-04T08:50:37.822Z,56.37
2022-08-04T08:53:22.791Z,57.47
2022-08-04T08:56:02.608Z,54.90
2022-08-04T08:58:40.407Z,55.23
2022-08-04T09:01:17.774Z,54.53
2022-08-04T09:04:03.732Z,56.20
2022-08-04T09:06:51.353Z,59.33
2022-08-04T09:09:45.464Z,59.87
2022-08-04T09:12:16.049Z,58.73
2022-08-04T09:14:52.191Z,58.43
2022-08-04T09:17:25.275Z,57.87
2022-08-04T09:19:56.164Z,56.97
2022-08-04T09:22:42.597Z,64.97
2022-08-04T09:25:13.635Z,60.77
2022-08-04T09:27:47.969Z,63.50
2022-08-04T09:30:18.703Z,56.17
2022-08-04T09:32:50.282Z,55.60
2022-08-04T09:35:25.244Z,55.87
2022-08-04T09:38:02.551Z,55.53
2022-08-04T09:40:52.486Z,58.93
2022-08-04T09:44:41.987Z,60.87
2022-08-04T21:39:32.586Z,28.67
2022-08-04T21:44:50.586Z,29.83
2022-08-04T21:47:23.717Z,27.93
2022-08-04T21:49:56.603Z,29.13
2022-08-04T21:52:25.690Z,31.00
2022-08-04T21:54:54.476Z,30.70
2022-08-04T21:57:25.113Z,29.97
2022-08-04T21:59:53.710Z,32.20
2022-08-04T22:02:22.027Z,33.63
2022-08-04T22:04:51.255Z,34.70
2022-08-04T22:07:19.488Z,33.60
2022-08-04T22:10:02.211Z,35.10
2022-08-04T22:12:33.698Z,33.70
2022-08-04T22:15:02.399Z,35.20
2022-08-04T22:17:50.635Z,33.33
2022-08-04T22:20:27.716Z,33.67
2022-08-04T22:23:03.425Z,34.80
2022-08-04T22:25:37.645Z,35.17
2022-08-04T22:28:08.015Z,47.00
2022-08-04T22:30:37.724Z,49.00
2022-08-04T22:33:08.036Z,46.13
2022-08-04T22:35:44.209Z,46.00
2022-08-04T22:38:25.258Z,45.40
2022-08-04T22:40:58.189Z,46.23
2022-08-04T22:43:33.384Z,45.37
2022-08-04T22:46:03.884Z,47.23
2022-08-04T22:48:33.551Z,46.63
2022-08-04T22:51:02.706Z,47.90
2022-08-04T22:53:31.131Z,47.17
2022-08-04T22:56:09.679Z,47.50
2022-08-04T22:58:40.797Z,48.00
2022-08-04T23:01:14.959Z,47.17
2022-08-04T23:03:51.024Z,47.23
2022-08-04T23:06:24.496Z,46.87
2022-08-04T23:08:53.173Z,50.80
2022-08-04T23:11:21.746Z,49.43
2022-08-04T23:13:51.369Z,48.43
2022-08-04T23:16:21.347Z,48.83
2022-08-04T23:18:52.980Z,51.40
2022-08-04T23:21:24.316Z,48.90
2022-08-04T23:24:00.979Z,48.87
2022-08-04T23:26:31.662Z,48.97
2022-08-04T23:29:03.760Z,51.17
2022-08-04T23:31:40.505Z,50.60
2022-08-04T23:34:12.170Z,50.37
2022-08-04T23:36:40.752Z,48.90
2022-08-04T23:39:10.958Z,50.73
2022-08-04T23:41:53.611Z,49.20
2022-08-04T23:44:28.157Z,49.83
2022-08-04T23:47:03.472Z,49.17
2022-08-04T23:49:44.121Z,50.87
2022-08-04T23:52:23.223Z,51.23
2022-08-04T23:54:58.355Z,51.10
2022-08-04T23:57:31.447Z,50.17
